sensor_id;sensor_type;location;lat;lon;timestamp;P1;durP1;ratioP1;P2;durP2;ratioP2
39948;SDS011;29070;48.102;-1.652;2022-12-31T00:04:31;8.43;;;2.47;;
39948;SDS011;29070;48.102;-1.652;2022-12-31T00:09:31;14.13;;;2.00;;
39948;SDS011;29070;48.102;-1.652;2022-12-31T00:14:32;12.50;;;1.73;;
39948;SDS011;29070;48.102;-1.652;2022-12-31T00:19:32;11.33;;;1.60;;
39948;SDS011;29070;48.102;-1.652;2022-12-31T00:24:32;10.93;;;1.73;;
39948;SDS011;29070;48.102;-1.652;2022-12-31T00:29:34;8.55;;;1.70;;
39948;SDS011;29070;48.102;-1.652;2022-12-31T00:34:35;11.33;;;1.40;;
39948;SDS011;29070;48.102;-1.652;2022-12-31T00:39:35;10.33;;;1.83;;
39948;SDS011;29070;48.102;-1.652;2022-12-31T00:44:35;13.57;;;1.63;;
39948;SDS011;29070;48.102;-1.652;2022-12-31T00:49:36;19.50;;;1.33;;
39948;SDS011;29070;48.102;-1.652;2022-12-31T00:54:36;11.00;;;1.47;;
39948;SDS011;29070;48.102;-1.652;2022-12-31T00:59:36;12.80;;;1.55;;
39948;SDS011;29070;48.102;-1.652;2022-12-31T01:04:37;15.60;;;1.53;;
39948;SDS011;29070;48.102;-1.652;2022-12-31T01:09:37;10.30;;;1.37;;
39948;SDS011;29070;48.102;-1.652;2022-12-31T01:14:37;10.23;;;2.87;;
39948;SDS011;29070;48.102;-1.652;2022-12-31T01:19:38;9.93;;;1.70;;
39948;SDS011;29070;48.102;-1.652;2022-12-31T01:24:38;11.90;;;1.33;;
39948;SDS011;29070;48.102;-1.652;2022-12-31T01:29:39;4.50;;;1.23;;
39948;SDS011;29070;48.102;-1.652;2022-12-31T01:34:39;9.27;;;1.13;;
39948;SDS011;29070;48.102;-1.652;2022-12-31T01:39:39;9.20;;;1.40;;
39948;SDS011;29070;48.102;-1.652;2022-12-31T01:49:41;7.47;;;1.40;;
39948;SDS011;29070;48.102;-1.652;2022-12-31T01:54:56;10.10;;;1.60;;
39948;SDS011;29070;48.102;-1.652;2022-12-31T02:00:03;5.97;;;1.02;;
39948;SDS011;29070;48.102;-1.652;2022-12-31T02:05:08;3.78;;;1.15;;
39948;SDS011;29070;48.102;-1.652;2022-12-31T02:10:18;10.95;;;1.55;;
39948;SDS011;29070;48.102;-1.652;2022-12-31T02:15:19;9.70;;;1.60;;
39948;SDS011;29070;48.102;-1.652;2022-12-31T02:26:16;7.53;;;1.52;;
39948;SDS011;29070;48.102;-1.652;2022-12-31T02:31:23;12.52;;;2.20;;
39948;SDS011;29070;48.102;-1.652;2022-12-31T02:36:26;11.85;;;2.33;;
39948;SDS011;29070;48.102;-1.652;2022-12-31T02:41:31;15.02;;;2.03;;
39948;SDS011;29070;48.102;-1.652;2022-12-31T02:47:05;10.25;;;1.45;;
39948;SDS011;29070;48.102;-1.652;2022-12-31T02:57:44;9.52;;;1.92;;
39948;SDS011;29070;48.102;-1.652;2022-12-31T03:02:52;12.10;;;1.50;;
39948;SDS011;29070;48.102;-1.652;2022-12-31T03:07:54;13.88;;;2.13;;
39948;SDS011;29070;48.102;-1.652;2022-12-31T03:12:56;8.38;;;1.48;;
39948;SDS011;29070;48.102;-1.652;2022-12-31T03:23:08;11.63;;;1.50;;
39948;SDS011;29070;48.102;-1.652;2022-12-31T03:28:12;6.68;;;2.63;;
39948;SDS011;29070;48.102;-1.652;2022-12-31T03:33:14;8.40;;;1.90;;
39948;SDS011;29070;48.102;-1.652;2022-12-31T03:38:15;8.98;;;1.95;;
39948;SDS011;29070;48.102;-1.652;2022-12-31T03:43:17;4.75;;;1.60;;
39948;SDS011;29070;48.102;-1.652;2022-12-31T03:48:19;14.98;;;2.00;;
39948;SDS011;29070;48.102;-1.652;2022-12-31T03:53:20;9.82;;;2.15;;
39948;SDS011;29070;48.102;-1.652;2022-12-31T03:58:21;8.52;;;2.13;;
39948;SDS011;29070;48.102;-1.652;2022-12-31T04:03:22;8.63;;;2.83;;
39948;SDS011;29070;48.102;-1.652;2022-12-31T04:08:22;8.43;;;1.63;;
39948;SDS011;29070;48.102;-1.652;2022-12-31T04:13:23;12.63;;;1.88;;
39948;SDS011;29070;48.102;-1.652;2022-12-31T04:18:23;9.17;;;1.40;;
39948;SDS011;29070;48.102;-1.652;2022-12-31T04:23:24;6.37;;;1.57;;
39948;SDS011;29070;48.102;-1.652;2022-12-31T04:28:24;4.30;;;1.27;;
39948;SDS011;29070;48.102;-1.652;2022-12-31T04:33:24;6.30;;;1.87;;
39948;SDS011;29070;48.102;-1.652;2022-12-31T04:38:25;6.13;;;1.90;;
39948;SDS011;29070;48.102;-1.652;2022-12-31T04:43:25;9.90;;;1.53;;
39948;SDS011;29070;48.102;-1.652;2022-12-31T04:48:26;14.00;;;2.57;;
39948;SDS011;29070;48.102;-1.652;2022-12-31T04:53:26;6.87;;;2.00;;
39948;SDS011;29070;48.102;-1.652;2022-12-31T04:58:27;17.25;;;2.03;;
39948;SDS011;29070;48.102;-1.652;2022-12-31T05:03:27;12.88;;;2.28;;
39948;SDS011;29070;48.102;-1.652;2022-12-31T05:08:27;17.60;;;2.75;;
39948;SDS011;29070;48.102;-1.652;2022-12-31T05:13:28;15.32;;;2.38;;
39948;SDS011;29070;48.102;-1.652;2022-12-31T05:18:29;15.18;;;2.63;;
39948;SDS011;29070;48.102;-1.652;2022-12-31T05:23:30;11.82;;;2.10;;
39948;SDS011;29070;48.102;-1.652;2022-12-31T05:28:30;14.52;;;1.73;;
39948;SDS011;29070;48.102;-1.652;2022-12-31T05:33:31;14.68;;;2.22;;
39948;SDS011;29070;48.102;-1.652;2022-12-31T05:38:32;12.90;;;2.53;;
39948;SDS011;29070;48.102;-1.652;2022-12-31T05:43:32;13.93;;;1.98;;
39948;SDS011;29070;48.102;-1.652;2022-12-31T05:48:33;8.85;;;1.77;;
39948;SDS011;29070;48.102;-1.652;2022-12-31T05:53:33;16.43;;;2.80;;
39948;SDS011;29070;48.102;-1.652;2022-12-31T05:58:34;13.07;;;2.30;;
39948;SDS011;29070;48.102;-1.652;2022-12-31T06:03:34;13.27;;;2.67;;
39948;SDS011;29070;48.102;-1.652;2022-12-31T06:08:34;9.17;;;2.43;;
39948;SDS011;29070;48.102;-1.652;2022-12-31T06:13:35;14.23;;;2.83;;
39948;SDS011;29070;48.102;-1.652;2022-12-31T06:18:35;16.00;;;2.47;;
39948;SDS011;29070;48.102;-1.652;2022-12-31T06:23:36;13.30;;;1.98;;
39948;SDS011;29070;48.102;-1.652;2022-12-31T06:28:39;10.05;;;1.83;;
39948;SDS011;29070;48.102;-1.652;2022-12-31T06:33:40;8.25;;;1.80;;
39948;SDS011;29070;48.102;-1.652;2022-12-31T06:38:41;11.00;;;1.67;;
39948;SDS011;29070;48.102;-1.652;2022-12-31T06:43:42;12.80;;;2.38;;
39948;SDS011;29070;48.102;-1.652;2022-12-31T06:48:43;16.58;;;3.20;;
39948;SDS011;29070;48.102;-1.652;2022-12-31T06:53:45;14.10;;;2.47;;
39948;SDS011;29070;48.102;-1.652;2022-12-31T06:58:47;12.45;;;2.47;;
39948;SDS011;29070;48.102;-1.652;2022-12-31T07:09:15;13.55;;;2.53;;
39948;SDS011;29070;48.102;-1.652;2022-12-31T07:14:32;8.82;;;1.55;;
39948;SDS011;29070;48.102;-1.652;2022-12-31T07:25:04;14.23;;;1.75;;
39948;SDS011;29070;48.102;-1.652;2022-12-31T07:35:21;8.50;;;1.75;;
39948;SDS011;29070;48.102;-1.652;2022-12-31T07:40:49;6.95;;;1.92;;
39948;SDS011;29070;48.102;-1.652;2022-12-31T07:51:12;12.85;;;2.17;;
39948;SDS011;29070;48.102;-1.652;2022-12-31T07:56:12;10.82;;;1.73;;
39948;SDS011;29070;48.102;-1.652;2022-12-31T08:01:15;11.20;;;1.90;;
39948;SDS011;29070;48.102;-1.652;2022-12-31T08:11:57;7.28;;;1.63;;
39948;SDS011;29070;48.102;-1.652;2022-12-31T08:16:59;11.10;;;1.73;;
39948;SDS011;29070;48.102;-1.652;2022-12-31T08:22:06;12.90;;;1.58;;
39948;SDS011;29070;48.102;-1.652;2022-12-31T08:38:14;16.35;;;2.33;;
39948;SDS011;29070;48.102;-1.652;2022-12-31T08:48:45;11.25;;;1.70;;
39948;SDS011;29070;48.102;-1.652;2022-12-31T08:53:47;7.43;;;1.85;;
39948;SDS011;29070;48.102;-1.652;2022-12-31T08:58:55;13.95;;;2.70;;
39948;SDS011;29070;48.102;-1.652;2022-12-31T09:04:24;10.77;;;2.13;;
39948;SDS011;29070;48.102;-1.652;2022-12-31T09:09:39;5.85;;;1.63;;
39948;SDS011;29070;48.102;-1.652;2022-12-31T09:14:43;8.70;;;1.67;;
39948;SDS011;29070;48.102;-1.652;2022-12-31T09:20:04;14.98;;;2.35;;
39948;SDS011;29070;48.102;-1.652;2022-12-31T09:25:06;8.57;;;2.05;;
39948;SDS011;29070;48.102;-1.652;2022-12-31T09:30:13;14.85;;;2.25;;
39948;SDS011;29070;48.102;-1.652;2022-12-31T09:51:11;14.18;;;2.47;;
39948;SDS011;29070;48.102;-1.652;2022-12-31T10:34:12;11.77;;;2.30;;
39948;SDS011;29070;48.102;-1.652;2022-12-31T11:01:16;16.77;;;3.20;;
39948;SDS011;29070;48.102;-1.652;2022-12-31T11:22:04;15.38;;;2.42;;
39948;SDS011;29070;48.102;-1.652;2022-12-31T11:43:36;8.73;;;1.92;;
39948;SDS011;29070;48.102;-1.652;2022-12-31T12:00:23;16.05;;;2.30;;
39948;SDS011;29070;48.102;-1.652;2022-12-31T12:05:24;10.93;;;2.67;;
39948;SDS011;29070;48.102;-1.652;2022-12-31T12:15:31;10.32;;;2.55;;
39948;SDS011;29070;48.102;-1.652;2022-12-31T12:20:36;8.95;;;2.10;;
39948;SDS011;29070;48.102;-1.652;2022-12-31T12:25:40;7.93;;;1.90;;
39948;SDS011;29070;48.102;-1.652;2022-12-31T12:30:43;13.35;;;2.05;;
39948;SDS011;29070;48.102;-1.652;2022-12-31T12:35:45;10.40;;;2.13;;
39948;SDS011;29070;48.102;-1.652;2022-12-31T12:40:55;14.88;;;2.90;;
39948;SDS011;29070;48.102;-1.652;2022-12-31T12:45:59;15.20;;;2.88;;
39948;SDS011;29070;48.102;-1.652;2022-12-31T12:51:42;15.25;;;2.75;;
39948;SDS011;29070;48.102;-1.652;2022-12-31T12:56:45;10.05;;;2.22;;
39948;SDS011;29070;48.102;-1.652;2022-12-31T13:18:17;12.20;;;3.30;;
39948;SDS011;29070;48.102;-1.652;2022-12-31T13:22:54;10.52;;;2.25;;
39948;SDS011;29070;48.102;-1.652;2022-12-31T13:28:02;10.70;;;2.55;;
39948;SDS011;29070;48.102;-1.652;2022-12-31T13:33:13;12.67;;;2.07;;
39948;SDS011;29070;48.102;-1.652;2022-12-31T13:38:21;9.10;;;2.35;;
39948;SDS011;29070;48.102;-1.652;2022-12-31T13:48:36;10.80;;;2.50;;
39948;SDS011;29070;48.102;-1.652;2022-12-31T13:54:00;8.73;;;2.00;;
39948;SDS011;29070;48.102;-1.652;2022-12-31T13:59:04;8.55;;;2.10;;
39948;SDS011;29070;48.102;-1.652;2022-12-31T14:04:13;11.48;;;2.05;;
39948;SDS011;29070;48.102;-1.652;2022-12-31T14:09:19;11.73;;;2.97;;
39948;SDS011;29070;48.102;-1.652;2022-12-31T14:14:25;10.23;;;1.97;;
39948;SDS011;29070;48.102;-1.652;2022-12-31T14:29:42;9.07;;;3.13;;
39948;SDS011;29070;48.102;-1.652;2022-12-31T14:35:05;17.40;;;5.22;;
39948;SDS011;29070;48.102;-1.652;2022-12-31T14:40:18;15.18;;;3.03;;
39948;SDS011;29070;48.102;-1.652;2022-12-31T14:50:43;11.68;;;2.90;;
39948;SDS011;29070;48.102;-1.652;2022-12-31T14:55:45;11.02;;;4.25;;
39948;SDS011;29070;48.102;-1.652;2022-12-31T15:01:06;17.08;;;3.75;;
39948;SDS011;29070;48.102;-1.652;2022-12-31T15:16:56;10.57;;;3.10;;
39948;SDS011;29070;48.102;-1.652;2022-12-31T15:22:39;10.07;;;2.30;;
39948;SDS011;29070;48.102;-1.652;2022-12-31T15:27:48;13.18;;;2.85;;
39948;SDS011;29070;48.102;-1.652;2022-12-31T15:32:49;9.88;;;2.58;;
39948;SDS011;29070;48.102;-1.652;2022-12-31T15:53:35;10.23;;;2.50;;
39948;SDS011;29070;48.102;-1.652;2022-12-31T15:58:39;15.80;;;2.67;;
39948;SDS011;29070;48.102;-1.652;2022-12-31T16:03:59;15.38;;;5.63;;
39948;SDS011;29070;48.102;-1.652;2022-12-31T16:09:07;9.70;;;3.90;;
39948;SDS011;29070;48.102;-1.652;2022-12-31T16:14:24;12.38;;;4.75;;
39948;SDS011;29070;48.102;-1.652;2022-12-31T16:19:34;12.38;;;7.70;;
39948;SDS011;29070;48.102;-1.652;2022-12-31T16:24:41;14.48;;;8.55;;
39948;SDS011;29070;48.102;-1.652;2022-12-31T16:29:42;14.50;;;2.65;;
39948;SDS011;29070;48.102;-1.652;2022-12-31T16:34:45;12.82;;;2.70;;
39948;SDS011;29070;48.102;-1.652;2022-12-31T16:44:55;16.75;;;2.95;;
39948;SDS011;29070;48.102;-1.652;2022-12-31T16:49:59;10.25;;;2.05;;
39948;SDS011;29070;48.102;-1.652;2022-12-31T16:55:07;12.05;;;3.33;;
39948;SDS011;29070;48.102;-1.652;2022-12-31T17:00:14;12.57;;;2.45;;
39948;SDS011;29070;48.102;-1.652;2022-12-31T17:05:21;18.42;;;3.75;;
39948;SDS011;29070;48.102;-1.652;2022-12-31T17:10:24;7.95;;;2.33;;
39948;SDS011;29070;48.102;-1.652;2022-12-31T17:15:29;10.50;;;2.97;;
39948;SDS011;29070;48.102;-1.652;2022-12-31T17:20:39;13.90;;;2.75;;
39948;SDS011;29070;48.102;-1.652;2022-12-31T17:25:39;13.13;;;3.20;;
39948;SDS011;29070;48.102;-1.652;2022-12-31T17:30:40;17.00;;;2.95;;
39948;SDS011;29070;48.102;-1.652;2022-12-31T17:35:41;20.03;;;3.63;;
39948;SDS011;29070;48.102;-1.652;2022-12-31T17:40:43;15.15;;;2.78;;
39948;SDS011;29070;48.102;-1.652;2022-12-31T17:45:45;15.38;;;2.78;;
39948;SDS011;29070;48.102;-1.652;2022-12-31T17:50:48;20.55;;;3.70;;
39948;SDS011;29070;48.102;-1.652;2022-12-31T17:55:50;14.65;;;3.30;;
39948;SDS011;29070;48.102;-1.652;2022-12-31T18:00:52;19.40;;;3.03;;
39948;SDS011;29070;48.102;-1.652;2022-12-31T18:05:53;11.98;;;3.10;;
39948;SDS011;29070;48.102;-1.652;2022-12-31T18:10:53;18.83;;;3.38;;
39948;SDS011;29070;48.102;-1.652;2022-12-31T18:15:54;16.23;;;3.88;;
39948;SDS011;29070;48.102;-1.652;2022-12-31T18:20:58;13.17;;;3.33;;
39948;SDS011;29070;48.102;-1.652;2022-12-31T18:26:02;23.20;;;3.63;;
39948;SDS011;29070;48.102;-1.652;2022-12-31T18:31:02;19.13;;;3.07;;
39948;SDS011;29070;48.102;-1.652;2022-12-31T18:36:02;13.70;;;3.53;;
39948;SDS011;29070;48.102;-1.652;2022-12-31T18:41:05;18.30;;;4.00;;
39948;SDS011;29070;48.102;-1.652;2022-12-31T18:46:08;13.02;;;3.10;;
39948;SDS011;29070;48.102;-1.652;2022-12-31T18:51:13;17.35;;;3.70;;
39948;SDS011;29070;48.102;-1.652;2022-12-31T18:56:19;16.17;;;3.60;;
39948;SDS011;29070;48.102;-1.652;2022-12-31T19:06:29;17.30;;;3.53;;
39948;SDS011;29070;48.102;-1.652;2022-12-31T19:11:29;13.10;;;4.82;;
39948;SDS011;29070;48.102;-1.652;2022-12-31T19:16:31;16.33;;;4.40;;
39948;SDS011;29070;48.102;-1.652;2022-12-31T19:21:32;23.47;;;3.73;;
39948;SDS011;29070;48.102;-1.652;2022-12-31T19:26:32;17.13;;;3.80;;
39948;SDS011;29070;48.102;-1.652;2022-12-31T19:31:32;18.20;;;3.37;;
39948;SDS011;29070;48.102;-1.652;2022-12-31T19:36:33;17.17;;;3.73;;
39948;SDS011;29070;48.102;-1.652;2022-12-31T19:41:33;19.37;;;3.13;;
39948;SDS011;29070;48.102;-1.652;2022-12-31T19:46:34;24.27;;;4.07;;
39948;SDS011;29070;48.102;-1.652;2022-12-31T19:51:34;18.83;;;4.03;;
39948;SDS011;29070;48.102;-1.652;2022-12-31T19:56:34;24.30;;;3.53;;
39948;SDS011;29070;48.102;-1.652;2022-12-31T20:01:35;21.23;;;3.77;;
39948;SDS011;29070;48.102;-1.652;2022-12-31T20:06:35;20.33;;;3.53;;
39948;SDS011;29070;48.102;-1.652;2022-12-31T20:11:36;15.47;;;3.70;;
39948;SDS011;29070;48.102;-1.652;2022-12-31T20:16:36;16.57;;;3.17;;
39948;SDS011;29070;48.102;-1.652;2022-12-31T20:21:36;19.93;;;3.77;;
39948;SDS011;29070;48.102;-1.652;2022-12-31T20:26:37;17.00;;;3.63;;
39948;SDS011;29070;48.102;-1.652;2022-12-31T20:31:38;13.05;;;4.00;;
39948;SDS011;29070;48.102;-1.652;2022-12-31T20:36:38;14.87;;;2.80;;
39948;SDS011;29070;48.102;-1.652;2022-12-31T20:41:39;19.77;;;4.53;;
39948;SDS011;29070;48.102;-1.652;2022-12-31T20:46:39;17.63;;;4.18;;
39948;SDS011;29070;48.102;-1.652;2022-12-31T20:51:40;15.83;;;3.63;;
39948;SDS011;29070;48.102;-1.652;2022-12-31T20:56:40;26.17;;;4.67;;
39948;SDS011;29070;48.102;-1.652;2022-12-31T21:01:41;26.35;;;4.22;;
39948;SDS011;29070;48.102;-1.652;2022-12-31T21:06:41;21.07;;;4.47;;
39948;SDS011;29070;48.102;-1.652;2022-12-31T21:11:41;24.30;;;4.07;;
39948;SDS011;29070;48.102;-1.652;2022-12-31T21:17:00;21.75;;;4.75;;
39948;SDS011;29070;48.102;-1.652;2022-12-31T21:22:00;21.40;;;3.70;;
39948;SDS011;29070;48.102;-1.652;2022-12-31T21:27:01;22.50;;;3.90;;
39948;SDS011;29070;48.102;-1.652;2022-12-31T21:32:01;17.47;;;3.23;;
39948;SDS011;29070;48.102;-1.652;2022-12-31T21:37:02;15.50;;;3.30;;
39948;SDS011;29070;48.102;-1.652;2022-12-31T21:42:02;17.43;;;3.30;;
39948;SDS011;29070;48.102;-1.652;2022-12-31T21:47:03;11.85;;;2.70;;
39948;SDS011;29070;48.102;-1.652;2022-12-31T21:52:22;19.50;;;4.00;;
39948;SDS011;29070;48.102;-1.652;2022-12-31T21:57:25;17.85;;;3.50;;
39948;SDS011;29070;48.102;-1.652;2022-12-31T22:02:25;12.13;;;2.50;;
39948;SDS011;29070;48.102;-1.652;2022-12-31T22:07:57;15.13;;;2.50;;
39948;SDS011;29070;48.102;-1.652;2022-12-31T22:12:58;8.03;;;2.13;;
39948;SDS011;29070;48.102;-1.652;2022-12-31T22:17:58;10.00;;;2.20;;
39948;SDS011;29070;48.102;-1.652;2022-12-31T22:22:58;19.93;;;3.30;;
39948;SDS011;29070;48.102;-1.652;2022-12-31T22:27:59;23.23;;;3.20;;
39948;SDS011;29070;48.102;-1.652;2022-12-31T22:33:00;15.75;;;3.40;;
39948;SDS011;29070;48.102;-1.652;2022-12-31T22:38:01;15.20;;;2.57;;
39948;SDS011;29070;48.102;-1.652;2022-12-31T22:43:01;14.00;;;3.10;;
39948;SDS011;29070;48.102;-1.652;2022-12-31T22:48:01;18.80;;;2.77;;
39948;SDS011;29070;48.102;-1.652;2022-12-31T22:53:02;15.05;;;2.90;;
39948;SDS011;29070;48.102;-1.652;2022-12-31T22:58:02;21.03;;;3.27;;
39948;SDS011;29070;48.102;-1.652;2022-12-31T23:03:02;13.17;;;3.37;;
39948;SDS011;29070;48.102;-1.652;2022-12-31T23:08:03;14.70;;;3.33;;
39948;SDS011;29070;48.102;-1.652;2022-12-31T23:13:03;23.30;;;3.95;;
39948;SDS011;29070;48.102;-1.652;2022-12-31T23:18:22;25.92;;;3.63;;
39948;SDS011;29070;48.102;-1.652;2022-12-31T23:23:41;19.35;;;4.07;;
39948;SDS011;29070;48.102;-1.652;2022-12-31T23:28:41;24.50;;;3.83;;
39948;SDS011;29070;48.102;-1.652;2022-12-31T23:33:43;17.67;;;3.78;;
39948;SDS011;29070;48.102;-1.652;2022-12-31T23:38:43;19.17;;;3.50;;
39948;SDS011;29070;48.102;-1.652;2022-12-31T23:43:44;20.17;;;3.63;;
39948;SDS011;29070;48.102;-1.652;2022-12-31T23:48:44;15.15;;;3.40;;
39948;SDS011;29070;48.102;-1.652;2022-12-31T23:53:44;16.67;;;3.27;;
39948;SDS011;29070;48.102;-1.652;2022-12-31T23:58:45;17.83;;;3.60;;
